Portada
METAR-TAF:

METAR-TAF

Aeroports :

Singapur, Singapur

latitud: 01-22N, longitud: 103-55E, altitud: 18 m

Observació

L'informe es va fer fa 1 hora i 7 minuts, a les 04:00 UTC
Vent 5 kt del Nord-Est
Temperatura 33°C
Humitat 63%
Pressió 1011 hPa
Visibilitat: 9000 m
Núvols disperses a una alçada de 1800 ft
Cel ennuvolat a una alçada de 30000 ft

METAR: WSAP 230400Z 04005KT 9000 SCT018 BKN300 33/25 Q1011

Hora: 13:07 (05:07 UTC)

Pronòstic

L'informe es va fer fa 6 hores i 7 minuts, a les 23:00 UTC
Pronòstic vàlid del 23 a les 00 UTC al 24 a les 06 UTC
Vent 8 kt del Nord/Nord-Oest
Visibilitat 10 km o més
Escasses núvols a una alçada de 1500 ft
Núvols disperses a una alçada de 2000 ft
Temporalment
l' 23 a les 07 UTC al 23 a les 10 UTC
Visibilitat: 3000 m
Escasses núvols a una alçada de 1200 ft, Cumulonimbus.
Cel ennuvolat a una alçada de 1500 ft
tempesta, pluja

TAF: WSAP 222300Z 2300/2406 33008KT 9999 FEW015 SCT020 TEMPO 2307/2310 3000 TSRA FEW012CB BKN015

Observacions i pronòstics meteorològics de més de 4000 aeroports (METAR i TAF).

Les estacions disponibles són els punts grocs i vermells al mapa.

Posi el ratolí al punt desitjat per veure el nom de l'estació.

Feu clic per veure les observacions i els pronòstics meteorològics.

Per canviar el mapa: feu clic els botons verds amb una creu de color negre per apropar; al botó verd amb un guió per allunyar la imatge; o en les fletxes verdes per a mapes adjacents.


METAR-TAF: